Time;durP1;ratioP1;P1;durP2;ratioP2;P2;SDS_P1;SDS_P2;PMS_P1;PMS_P2;Temp;Humidity;BMP_temperature;BMP_pressure;BME280_temperature;BME280_humidity;BME280_pressure;Samples;Min_cycle;Max_cycle;Signal;HPM_P1;HPM_P2
2023/01/14 00:01:21;;;;;;;16.03;8.67;;;;;;;8.64;96.31;99916.88;5107610;28;20252;-56
2023/01/14 00:03:48;;;;;;;8.87;7.60;;;;;;;8.59;96.59;99918.44;5111169;28;20660;-56
2023/01/14 00:06:18;;;;;;;11.47;8.63;;;;;;;8.54;97.17;99921.66;5112573;28;20698;-56
2023/01/14 00:08:45;;;;;;;11.07;8.57;;;;;;;8.46;97.51;99906.03;5108815;28;20201;-55
2023/01/14 00:11:14;;;;;;;10.93;9.13;;;;;;;8.58;97.76;99928.59;5113479;28;20190;-55
2023/01/14 00:13:43;;;;;;;12.43;9.20;;;;;;;8.62;97.45;99918.53;5113741;28;20247;-55
2023/01/14 00:16:13;;;;;;;12.70;11.40;;;;;;;8.66;97.85;99922.03;5111844;28;20437;-55
2023/01/14 00:18:40;;;;;;;12.90;9.53;;;;;;;8.67;97.25;99913.53;5105322;28;20958;-55
2023/01/14 00:21:10;;;;;;;15.37;11.00;;;;;;;8.63;97.45;99920.25;5109229;28;20200;-56
2023/01/14 00:23:37;;;;;;;11.40;9.70;;;;;;;8.67;97.64;99918.66;5111814;28;20564;-55
2023/01/14 00:26:07;;;;;;;14.43;10.73;;;;;;;8.37;98.40;99916.03;5114855;28;20243;-55
2023/01/14 00:28:34;;;;;;;13.83;9.63;;;;;;;8.34;98.82;99912.47;5112206;28;20187;-58
2023/01/14 00:31:10;;;;;;;13.03;10.40;;;;;;;8.34;99.32;99907.38;5101982;28;20569;-55
2023/01/14 00:33:38;;;;;;;13.77;11.20;;;;;;;8.36;98.95;99898.91;5114482;28;20632;-55
2023/01/14 00:36:07;;;;;;;12.60;9.90;;;;;;;8.62;98.67;99915.97;5114608;28;20201;-56
2023/01/14 00:38:34;;;;;;;14.87;10.67;;;;;;;8.64;98.44;99922.00;5114677;28;20186;-55
2023/01/14 00:41:03;;;;;;;13.27;10.63;;;;;;;8.71;97.97;99928.16;5114744;28;20545;-55
2023/01/14 00:43:30;;;;;;;16.97;11.57;;;;;;;8.73;97.72;99923.97;5114469;28;20189;-56
2023/01/14 00:45:58;;;;;;;13.57;10.50;;;;;;;8.70;97.32;99916.19;5114207;28;20549;-56
2023/01/14 00:48:26;;;;;;;14.27;11.03;;;;;;;8.78;97.50;99930.09;5113498;28;20195;-56
2023/01/14 00:50:53;;;;;;;13.27;10.13;;;;;;;8.83;97.23;99928.53;5114101;28;20189;-54
2023/01/14 00:53:19;;;;;;;17.23;9.93;;;;;;;8.87;96.84;99925.25;5114316;28;20185;-54
2023/01/14 00:55:47;;;;;;;12.53;9.57;;;;;;;8.89;96.57;99923.59;5114249;28;20235;-55
2023/01/14 00:58:14;;;;;;;12.70;10.23;;;;;;;8.92;96.18;99917.69;5110027;28;20279;-54
2023/01/14 01:00:41;;;;;;;11.93;10.60;;;;;;;8.94;96.38;99916.03;5106060;28;20581;-54
2023/01/14 01:03:07;;;;;;;15.53;10.73;;;;;;;8.96;95.97;99911.81;5114114;28;20200;-55
2023/01/14 01:05:37;;;;;;;12.23;10.93;;;;;;;8.96;95.98;99914.38;5114431;28;20197;-55
2023/01/14 01:08:05;;;;;;;12.90;10.93;;;;;;;8.97;95.86;99913.56;5111157;28;20221;-54
2023/01/14 01:10:34;;;;;;;12.70;10.57;;;;;;;8.94;95.81;99910.91;5108566;28;20190;-55
2023/01/14 01:13:01;;;;;;;15.17;11.50;;;;;;;8.98;95.46;99907.63;5109188;28;20192;-55
2023/01/14 01:15:27;;;;;;;14.33;11.53;;;;;;;8.93;95.68;99904.06;5111743;28;20200;-58
2023/01/14 01:17:54;;;;;;;14.03;11.80;;;;;;;8.86;95.80;99898.75;5107045;28;20198;-55
2023/01/14 01:20:21;;;;;;;14.20;10.73;;;;;;;8.84;95.89;99897.81;5112154;28;20193;-55
2023/01/14 01:22:49;;;;;;;18.77;12.70;;;;;;;8.82;96.27;99899.47;5111406;28;20190;-55
2023/01/14 01:25:16;;;;;;;18.03;13.33;;;;;;;8.83;95.67;99890.09;5111988;28;20559;-54
2023/01/14 01:27:43;;;;;;;13.27;11.30;;;;;;;8.85;94.93;99891.88;5111130;28;20235;-56
2023/01/14 01:30:11;;;;;;;18.43;11.50;;;;;;;8.89;94.56;99885.16;5109346;28;20190;-56
2023/01/14 01:32:38;;;;;;;15.00;12.47;;;;;;;8.82;94.26;99875.53;5108493;28;20201;-56
2023/01/14 01:35:05;;;;;;;13.13;11.40;;;;;;;8.86;94.12;99878.25;5111974;28;20193;-56
2023/01/14 01:37:32;;;;;;;16.07;13.80;;;;;;;8.89;93.62;99880.91;5110090;28;20190;-58
2023/01/14 01:40:01;;;;;;;23.47;14.93;;;;;;;8.89;93.15;99873.22;5107006;28;20209;-54
2023/01/14 01:42:33;;;;;;;20.87;13.80;;;;;;;8.87;93.27;99867.16;5110874;28;20186;-55
2023/01/14 01:45:29;;;;;;;21.30;14.17;;;;;;;8.90;92.99;99859.56;5105076;28;20244;-56
2023/01/14 01:48:02;;;;;;;19.47;13.63;;;;;;;8.94;92.55;99859.66;5088905;28;20221;-56
2023/01/14 01:50:29;;;;;;;18.80;13.43;;;;;;;8.93;93.07;99852.81;5111920;28;20232;-54
2023/01/14 01:52:56;;;;;;;17.50;12.67;;;;;;;8.93;92.92;99853.66;5104757;28;20213;-56
2023/01/14 01:55:25;;;;;;;15.10;13.50;;;;;;;8.92;93.03;99849.38;5108037;28;20664;-57
2023/01/14 01:57:56;;;;;;;16.73;13.63;;;;;;;8.94;93.02;99844.28;5113134;28;20253;-56
2023/01/14 02:00:25;;;;;;;19.65;15.10;;;;;;;8.97;92.69;99842.69;5109079;28;20443;-57
2023/01/14 02:02:57;;;;;;;16.23;14.17;;;;;;;9.06;92.61;99839.50;5101264;28;20199;-57
2023/01/14 02:05:24;;;;;;;20.77;14.30;;;;;;;9.06;91.97;99840.38;5093963;28;20272;-57
2023/01/14 02:07:51;;;;;;;17.70;13.50;;;;;;;9.04;92.56;99828.34;5101723;28;20218;-58
2023/01/14 02:10:19;;;;;;;18.43;14.47;;;;;;;8.89;94.15;99832.22;5101105;28;20258;-57
2023/01/14 02:13:12;;;;;;;20.23;13.63;;;;;;;8.88;95.08;99830.47;5101969;28;20199;-57
2023/01/14 02:15:49;;;;;;;18.87;14.13;;;;;;;8.72;95.89;99832.56;5103241;28;20189;-57
2023/01/14 02:18:29;;;;;;;19.13;13.93;;;;;;;8.65;96.87;99835.78;5095619;28;20198;-57
2023/01/14 02:21:04;;;;;;;18.57;14.53;;;;;;;8.65;97.40;99828.09;5108477;28;20197;-58
2023/01/14 02:24:06;;;;;;;19.70;14.40;;;;;;;8.77;97.36;99823.31;5101872;28;20200;-56
2023/01/14 02:26:52;;;;;;;20.43;14.50;;;;;;;8.82;96.98;99830.28;5105564;28;20267;-55
2023/01/14 02:29:42;;;;;;;21.83;14.33;;;;;;;8.83;96.56;99831.16;5099575;28;20201;-55
2023/01/14 02:32:18;;;;;;;20.10;14.73;;;;;;;8.91;96.37;99824.56;5098770;28;20190;-56
2023/01/14 02:34:56;;;;;;;17.53;13.53;;;;;;;8.87;96.29;99831.28;5097671;28;20619;-55
2023/01/14 02:37:29;;;;;;;17.37;13.70;;;;;;;8.94;95.97;99826.34;5098671;28;20194;-55
2023/01/14 02:40:05;;;;;;;22.77;14.47;;;;;;;8.92;95.21;99815.19;5101589;28;20287;-56
2023/01/14 02:45:31;;;;;;;24.33;18.50;;;;;;;8.92;93.31;99828.88;5112603;28;20272;-55
2023/01/14 02:47:59;;;;;;;25.57;19.73;;;;;;;8.89;92.91;99834.78;5112738;28;20209;-54
2023/01/14 02:50:26;;;;;;;22.17;18.17;;;;;;;8.85;92.58;99832.94;5112561;28;20193;-55
2023/01/14 02:52:53;;;;;;;24.97;18.50;;;;;;;8.84;92.52;99838.88;5112126;28;20192;-54
2023/01/14 02:55:32;;;;;;;28.93;17.67;;;;;;;8.89;92.37;99845.03;5110765;28;20193;-55
2023/01/14 02:58:15;;;;;;;25.67;17.27;;;;;;;8.89;92.01;99842.47;5106645;28;20217;-55
2023/01/14 03:00:56;;;;;;;21.70;16.57;;;;;;;8.89;91.55;99847.59;5094737;28;20198;-55
2023/01/14 03:03:44;;;;;;;24.00;17.40;;;;;;;8.89;91.74;99851.84;5092299;28;20183;-55
2023/01/14 03:06:35;;;;;;;19.63;15.30;;;;;;;8.87;91.36;99854.34;5091805;28;20664;-54
2023/01/14 03:09:05;;;;;;;22.83;16.63;;;;;;;8.85;91.11;99850.00;5102354;28;20194;-55
2023/01/14 03:11:41;;;;;;;23.80;17.00;;;;;;;8.80;91.57;99849.88;5092015;28;20194;-55
2023/01/14 03:14:16;;;;;;;25.53;17.63;;;;;;;8.79;91.14;99849.81;5115952;28;20664;-54
2023/01/14 03:16:50;;;;;;;23.30;17.03;;;;;;;8.73;91.34;99854.81;5116524;28;20189;-54
2023/01/14 03:19:24;;;;;;;23.30;17.63;;;;;;;8.68;91.36;99851.25;5116326;28;20208;-55
2023/01/14 03:21:55;;;;;;;23.40;18.50;;;;;;;8.66;91.92;99855.44;5116059;28;20641;-54
2023/01/14 03:24:27;;;;;;;25.53;17.90;;;;;;;8.65;91.54;99859.69;5116906;28;20191;-55
2023/01/14 03:26:57;;;;;;;25.93;18.03;;;;;;;8.66;91.55;99858.00;5115024;28;20259;-55
2023/01/14 03:29:29;;;;;;;24.90;18.10;;;;;;;8.67;91.44;99854.63;5115860;28;20648;-54
2023/01/14 03:32:04;;;;;;;23.67;18.63;;;;;;;8.57;91.50;99843.22;5115763;28;20595;-54
2023/01/14 03:34:36;;;;;;;23.30;17.93;;;;;;;8.64;91.63;99854.53;5115821;28;20198;-54
2023/01/14 03:37:05;;;;;;;23.47;18.23;;;;;;;8.62;91.94;99856.19;5115622;28;20534;-55
2023/01/14 03:39:33;;;;;;;25.97;19.10;;;;;;;8.59;92.01;99853.53;5115860;28;20186;-55
2023/01/14 03:42:22;;;;;;;23.30;18.40;;;;;;;8.55;92.01;99854.25;5115770;28;20185;-55
2023/01/14 03:45:02;;;;;;;28.80;19.67;;;;;;;8.36;92.07;99822.09;5115851;28;20193;-55
2023/01/14 03:47:34;;;;;;;26.13;20.10;;;;;;;8.53;92.28;99854.22;5115800;28;20286;-55
2023/01/14 03:50:03;;;;;;;24.47;19.60;;;;;;;8.57;91.89;99863.69;5115923;28;20182;-54
2023/01/14 03:52:47;;;;;;;28.80;20.80;;;;;;;8.52;92.19;99861.81;5109059;28;20201;-54
2023/01/14 03:55:18;;;;;;;27.07;20.87;;;;;;;8.46;92.64;99859.09;5106526;28;20242;-54
2023/01/14 03:57:51;;;;;;;26.70;20.57;;;;;;;8.45;92.64;99865.91;5115605;28;20623;-54
2023/01/14 04:00:23;;;;;;;27.80;20.30;;;;;;;8.51;92.67;99868.66;5115211;28;20190;-54
2023/01/14 04:02:55;;;;;;;28.80;20.73;;;;;;;8.53;92.72;99861.88;5115416;28;20189;-55
2023/01/14 04:05:22;;;;;;;24.70;19.07;;;;;;;8.55;92.30;99855.13;5116136;28;20191;-54
2023/01/14 04:07:50;;;;;;;24.70;18.93;;;;;;;8.54;92.41;99853.38;5114845;28;20271;-56
2023/01/14 04:10:17;;;;;;;27.13;20.40;;;;;;;8.50;92.59;99854.13;5094880;28;20187;-55
2023/01/14 04:15:25;;;;;;;27.87;19.87;;;;;;;8.48;93.04;99858.31;5093869;28;20218;-55
2023/01/14 04:17:53;;;;;;;32.07;21.87;;;;;;;8.29;93.76;99845.78;5095201;28;20190;-54
2023/01/14 04:20:20;;;;;;;28.93;20.90;;;;;;;8.34;94.57;99849.34;5094423;28;20742;-55
2023/01/14 04:22:47;;;;;;;29.07;20.67;;;;;;;8.31;94.46;99849.25;5094511;28;20267;-55
2023/01/14 04:25:14;;;;;;;27.43;19.90;;;;;;;8.39;94.66;99852.91;5097382;28;20660;-54
2023/01/14 04:27:40;;;;;;;28.53;21.00;;;;;;;8.40;94.38;99853.78;5113250;28;20281;-54
2023/01/14 04:30:09;;;;;;;27.20;20.63;;;;;;;8.47;93.79;99848.91;5114857;28;20200;-56
2023/01/14 04:32:35;;;;;;;27.37;20.00;;;;;;;8.50;93.54;99850.69;5114100;28;20194;-56
2023/01/14 04:35:05;;;;;;;23.20;19.07;;;;;;;8.46;93.64;99848.88;5114971;28;20200;-55
2023/01/14 04:37:31;;;;;;;28.30;20.40;;;;;;;8.47;93.35;99854.03;5114731;28;20190;-55
2023/01/14 04:39:58;;;;;;;30.88;21.88;;;;;;;8.58;93.51;99859.47;5113969;28;20917;-55
2023/01/14 04:42:28;;;;;;;28.57;20.17;;;;;;;8.62;92.95;99862.19;5114387;28;20664;-55
2023/01/14 04:44:56;;;;;;;25.97;18.83;;;;;;;8.60;92.62;99853.56;5114729;28;20201;-55
2023/01/14 04:47:23;;;;;;;25.70;19.43;;;;;;;8.60;92.52;99862.94;5114502;28;20214;-55
2023/01/14 04:49:50;;;;;;;26.93;21.17;;;;;;;8.52;92.59;99867.81;5114897;28;20193;-54
2023/01/14 04:52:19;;;;;;;28.17;22.33;;;;;;;8.53;93.02;99861.88;5114174;28;20660;-54
2023/01/14 04:54:46;;;;;;;25.43;19.53;;;;;;;8.56;92.78;99871.34;5114433;28;20186;-55
2023/01/14 04:57:13;;;;;;;27.00;21.17;;;;;;;8.62;92.96;99876.66;5114084;28;20430;-55
2023/01/14 04:59:40;;;;;;;28.63;20.80;;;;;;;8.69;92.58;99870.88;5114756;28;20192;-55
2023/01/14 05:02:06;;;;;;;27.17;18.87;;;;;;;8.73;92.51;99875.28;5114296;28;20263;-55
2023/01/14 05:04:33;;;;;;;30.37;19.83;;;;;;;8.72;92.29;99879.53;5114040;28;20198;-55
2023/01/14 05:07:02;;;;;;;26.33;19.70;;;;;;;8.71;92.54;99871.78;5114178;28;20270;-54
2023/01/14 05:09:31;;;;;;;26.67;22.20;;;;;;;8.72;93.19;99866.72;5112797;28;20474;-54
2023/01/14 05:11:58;;;;;;;28.27;20.30;;;;;;;8.80;92.31;99878.06;5113942;28;20183;-55
2023/01/14 05:14:25;;;;;;;26.80;19.50;;;;;;;8.72;92.41;99882.09;5113696;28;20754;-55
2023/01/14 05:16:51;;;;;;;30.67;19.93;;;;;;;8.64;92.84;99882.69;5114308;28;20194;-55
2023/01/14 05:19:18;;;;;;;26.63;19.60;;;;;;;8.65;93.50;99876.75;5113980;28;20201;-55
2023/01/14 05:21:45;;;;;;;24.57;19.30;;;;;;;8.64;93.70;99872.44;5112789;28;20666;-56
2023/01/14 05:24:12;;;;;;;29.23;20.03;;;;;;;8.44;93.83;99847.94;5113784;28;20670;-55
2023/01/14 05:26:40;;;;;;;27.00;19.70;;;;;;;8.52;93.96;99865.25;5113790;28;20630;-55
2023/01/14 05:29:07;;;;;;;30.77;18.97;;;;;;;8.58;94.15;99872.25;5113427;28;20217;-55
2023/01/14 05:31:34;;;;;;;27.67;19.50;;;;;;;8.56;94.26;99872.22;5113505;28;20197;-55
2023/01/14 05:34:00;;;;;;;30.00;19.83;;;;;;;8.60;94.06;99875.72;5113669;28;20183;-55
2023/01/14 05:36:28;;;;;;;28.10;19.37;;;;;;;8.60;94.21;99873.16;5112273;28;20225;-55
2023/01/14 05:38:54;;;;;;;27.17;19.87;;;;;;;8.63;94.25;99866.44;5113468;28;20645;-56
2023/01/14 05:41:21;;;;;;;28.13;20.13;;;;;;;8.62;93.94;99874.09;5113494;28;20265;-56
2023/01/14 05:46:34;;;;;;;26.97;19.30;;;;;;;8.39;94.68;99857.16;5113280;28;20180;-56
2023/01/14 05:49:00;;;;;;;30.70;20.23;;;;;;;8.36;95.01;99857.94;5113086;28;20218;-56
2023/01/14 05:51:27;;;;;;;36.03;25.20;;;;;;;8.43;95.39;99875.25;5113332;28;20190;-56
2023/01/14 05:53:54;;;;;;;31.30;20.47;;;;;;;8.49;95.69;99869.44;5113116;28;20668;-56
2023/01/14 05:56:21;;;;;;;30.97;20.67;;;;;;;8.47;95.40;99864.25;5111482;28;20194;-56
2023/01/14 05:58:49;;;;;;;25.33;19.37;;;;;;;8.53;95.16;99861.88;5112946;28;20178;-55
2023/01/14 06:06:47;;;;;;;31.63;19.43;;;;;;;8.74;93.97;99870.19;5113138;28;20196;-55
2023/01/14 06:09:15;;;;;;;30.23;19.90;;;;;;;8.72;93.85;99869.28;5112775;28;20210;-55
2023/01/14 06:11:44;;;;;;;30.73;19.40;;;;;;;8.72;93.89;99869.28;5111773;28;20204;-55
2023/01/14 06:14:12;;;;;;;32.33;20.80;;;;;;;8.73;93.97;99863.38;5104605;28;20299;-54
2023/01/14 06:16:40;;;;;;;29.00;19.63;;;;;;;8.74;93.93;99862.50;5092149;28;20256;-55
2023/01/14 06:19:08;;;;;;;29.40;20.03;;;;;;;8.72;94.13;99871.84;5093583;28;20191;-55
2023/01/14 06:21:35;;;;;;;29.87;19.73;;;;;;;8.69;94.26;99866.63;5113341;28;20182;-55
2023/01/14 06:24:02;;;;;;;29.33;18.73;;;;;;;8.73;94.17;99870.16;5112533;28;20194;-54
2023/01/14 06:26:29;;;;;;;31.97;19.87;;;;;;;8.76;93.83;99865.97;5111394;28;20189;-54
2023/01/14 06:28:57;;;;;;;31.80;19.33;;;;;;;8.78;93.83;99871.16;5112529;28;20239;-55
2023/01/14 06:31:26;;;;;;;32.93;19.57;;;;;;;8.77;93.75;99867.72;5111829;28;20189;-56
2023/01/14 06:33:55;;;;;;;34.27;21.93;;;;;;;8.79;93.49;99867.75;5111737;28;20607;-55
2023/01/14 06:36:23;;;;;;;35.83;24.17;;;;;;;8.80;93.55;99865.25;5112652;28;20190;-55
2023/01/14 06:38:50;;;;;;;38.13;24.60;;;;;;;8.80;93.57;99867.81;5112387;28;20201;-55
2023/01/14 06:41:17;;;;;;;41.20;25.53;;;;;;;8.81;93.43;99871.25;5109629;28;20187;-56
2023/01/14 06:43:44;;;;;;;40.07;23.83;;;;;;;8.81;93.60;99859.31;5099921;28;20626;-55
2023/01/14 06:46:11;;;;;;;37.77;22.80;;;;;;;8.80;93.41;99866.94;5110953;28;20211;-56
2023/01/14 06:48:40;;;;;;;41.53;23.83;;;;;;;8.84;93.60;99861.09;5110933;28;20218;-55
2023/01/14 06:51:09;;;;;;;40.83;24.70;;;;;;;8.69;93.49;99846.16;5110835;28;20204;-57
2023/01/14 06:53:36;;;;;;;40.33;24.50;;;;;;;8.76;93.50;99868.53;5115834;28;20185;-55
2023/01/14 06:56:04;;;;;;;40.40;24.77;;;;;;;8.75;93.74;99869.38;5115742;28;20193;-56
2023/01/14 06:58:31;;;;;;;44.53;26.73;;;;;;;8.78;94.07;99873.72;5115248;28;20278;-56
2023/01/14 07:00:58;;;;;;;41.40;25.03;;;;;;;8.78;93.93;99878.84;5114453;28;20213;-56
2023/01/14 07:03:26;;;;;;;41.83;25.07;;;;;;;8.76;94.06;99883.06;5115468;28;20193;-56
2023/01/14 07:05:54;;;;;;;41.43;26.00;;;;;;;8.72;94.25;99876.09;5116591;28;20189;-54
2023/01/14 07:08:21;;;;;;;50.95;32.33;;;;;;;8.74;94.83;99877.88;5114243;28;20477;-55
2023/01/14 07:10:50;;;;;;;46.83;26.70;;;;;;;8.78;94.61;99879.72;5116381;28;20292;-55
2023/01/14 07:13:17;;;;;;;46.27;27.33;;;;;;;8.78;94.26;99883.97;5116467;28;20186;-53
2023/01/14 07:15:44;;;;;;;46.43;26.77;;;;;;;8.83;94.19;99890.97;5115951;28;20186;-53
2023/01/14 07:18:11;;;;;;;46.58;28.38;;;;;;;8.83;94.30;99887.53;5107686;28;20479;-54
2023/01/14 07:20:38;;;;;;;42.80;27.40;;;;;;;8.78;94.35;99889.97;5106240;28;20197;-54
2023/01/14 07:41:25;;;;;;;46.97;29.53;;;;;;;9.28;91.32;99882.84;5109349;27;20539;-55
2023/01/14 07:43:52;;;;;;;48.73;28.67;;;;;;;9.19;91.23;99882.59;5106165;28;20706;-55
2023/01/14 07:46:19;;;;;;;51.20;32.67;;;;;;;9.24;91.94;99881.03;5083998;28;20444;-55
2023/01/14 07:48:46;;;;;;;48.33;29.53;;;;;;;9.26;91.09;99880.22;5081026;28;20187;-54
2023/01/14 07:51:16;;;;;;;42.83;27.63;;;;;;;9.26;90.80;99885.34;5068485;28;20196;-54
2023/01/14 07:53:42;;;;;;;41.67;26.93;;;;;;;9.25;90.97;99883.66;5074571;28;20186;-53
2023/01/14 07:56:09;;;;;;;45.43;29.37;;;;;;;9.24;91.18;99878.47;5088681;28;20187;-56
2023/01/14 07:58:37;;;;;;;44.27;27.30;;;;;;;9.30;90.74;99883.75;5088865;28;20195;-54
2023/01/14 08:01:07;;;;;;;45.40;27.77;;;;;;;9.30;90.52;99886.31;5088487;28;20199;-55
2023/01/14 08:03:33;;;;;;;42.57;28.20;;;;;;;9.27;90.60;99884.53;5088226;28;20218;-56
2023/01/14 08:06:02;;;;;;;43.77;26.87;;;;;;;9.22;90.60;99886.13;5087466;28;20280;-56
2023/01/14 08:08:28;;;;;;;47.10;28.37;;;;;;;9.18;90.68;99875.72;5088255;28;20202;-54
2023/01/14 08:10:55;;;;;;;42.87;28.77;;;;;;;9.19;90.69;99887.72;5087864;28;20227;-55
2023/01/14 08:13:22;;;;;;;43.00;27.10;;;;;;;9.04;91.60;99880.47;5088147;28;20194;-54
2023/01/14 08:15:56;;;;;;;47.17;27.73;;;;;;;8.95;92.49;99884.47;5089101;28;20187;-55
2023/01/14 08:18:23;;;;;;;42.10;26.03;;;;;;;8.88;93.07;99886.84;5088304;28;20524;-55
2023/01/14 08:20:57;;;;;;;45.13;29.80;;;;;;;8.83;93.31;99888.41;5087866;28;20195;-55
2023/01/14 08:23:24;;;;;;;42.47;25.43;;;;;;;8.78;93.95;99896.78;5088213;28;20223;-55
2023/01/14 08:25:51;;;;;;;43.10;27.63;;;;;;;8.87;93.56;99897.91;5087845;28;20195;-55
2023/01/14 08:28:18;;;;;;;37.73;26.60;;;;;;;8.99;93.15;99897.41;5087748;28;20558;-56
2023/01/14 08:30:44;;;;;;;42.50;25.80;;;;;;;8.80;92.62;99893.44;5087255;28;20215;-59
2023/01/14 08:33:12;;;;;;;45.73;26.57;;;;;;;8.83;92.88;99908.03;5081531;28;20206;-55
2023/01/14 08:35:40;;;;;;;41.40;27.50;;;;;;;8.87;93.04;99910.72;5085804;28;20195;-54
2023/01/14 08:38:07;;;;;;;53.90;30.90;;;;;;;8.92;93.31;99915.13;5086603;28;20574;-53
2023/01/14 08:40:34;;;;;;;52.10;31.80;;;;;;;8.97;93.70;99913.56;5084214;28;20220;-54
2023/01/14 08:43:00;;;;;;;57.17;33.73;;;;;;;9.13;93.25;99913.19;5074176;28;20206;-54
2023/01/14 08:45:27;;;;;;;55.50;33.73;;;;;;;9.12;92.57;99893.50;5074346;28;20661;-55
2023/01/14 08:47:54;;;;;;;50.80;32.17;;;;;;;9.27;92.14;99906.75;5074068;28;20194;-54
2023/01/14 08:50:22;;;;;;;68.17;39.63;;;;;;;9.36;91.46;99899.31;5073745;28;20218;-55
2023/01/14 08:52:49;;;;;;;72.90;39.63;;;;;;;9.37;91.03;99909.59;5074201;28;20187;-55
2023/01/14 08:55:16;;;;;;;69.40;40.27;;;;;;;9.35;90.96;99900.13;5060589;28;20211;-55
2023/01/14 08:57:43;;;;;;;70.37;46.30;;;;;;;9.35;90.99;99905.25;5073550;28;20184;-55
2023/01/14 09:00:11;;;;;;;137.90;118.80;;;;;;;9.43;91.59;99903.78;5072939;28;20438;-56
2023/01/14 09:02:37;;;;;;;133.10;104.37;;;;;;;9.50;90.81;99910.81;5073927;28;20183;-56
2023/01/14 09:05:05;;;;;;;90.10;62.13;;;;;;;9.39;90.90;99907.09;5073742;28;20187;-55
2023/01/14 09:18:30;;;;;;;128.17;94.37;;;;;;;9.12;93.27;99901.22;5073536;28;20202;-56
2023/01/14 09:20:57;;;;;;;103.00;68.03;;;;;;;9.22;93.13;99893.81;5065361;28;20199;-56
2023/01/14 09:23:25;;;;;;;101.80;63.47;;;;;;;9.25;93.21;99900.72;5061852;28;20211;-56
2023/01/14 09:25:52;;;;;;;95.70;60.57;;;;;;;9.20;93.28;99895.44;5063060;28;20197;-56
2023/01/14 09:28:19;;;;;;;80.57;53.90;;;;;;;9.28;92.85;99894.00;5063696;28;20704;-60
2023/01/14 09:30:47;;;;;;;90.60;55.37;;;;;;;9.36;92.37;99891.63;5073281;28;20300;-56
2023/01/14 09:33:14;;;;;;;86.43;54.17;;;;;;;9.45;92.45;99885.03;5073071;28;20238;-56
2023/01/14 09:35:41;;;;;;;96.33;53.77;;;;;;;9.54;92.33;99884.41;5067701;28;20191;-56
2023/01/14 09:38:07;;;;;;;95.27;52.87;;;;;;;9.70;91.80;99889.09;5063375;28;20187;-56
2023/01/14 09:40:39;;;;;;;83.10;52.53;;;;;;;9.86;91.22;99888.66;5061015;28;20227;-54
2023/01/14 09:43:06;;;;;;;78.03;47.60;;;;;;;9.81;90.35;99882.56;5055780;28;20274;-57
2023/01/14 09:45:34;;;;;;;73.10;46.23;;;;;;;9.89;90.68;99888.75;5056315;28;20199;-55
2023/01/14 09:48:06;;;;;;;67.22;47.78;;;;;;;9.97;90.65;99876.13;5055478;28;20553;-55
2023/01/14 09:50:42;;;;;;;63.77;39.70;;;;;;;10.03;89.80;99879.69;5067823;28;20297;-56
2023/01/14 09:53:29;;;;;;;56.57;38.30;;;;;;;10.12;89.35;99873.03;5063613;28;20191;-56
2023/01/14 09:56:02;;;;;;;52.23;35.47;;;;;;;10.08;89.13;99882.34;5071861;28;20213;-55
2023/01/14 09:58:36;;;;;;;57.10;35.60;;;;;;;10.08;89.21;99872.97;5057868;28;20192;-55
2023/01/14 10:01:13;;;;;;;50.97;34.67;;;;;;;10.09;88.63;99874.72;5064649;28;20583;-55
2023/01/14 10:03:48;;;;;;;52.83;36.37;;;;;;;10.09;88.70;99873.84;5052330;28;20180;-55
2023/01/14 10:06:18;;;;;;;50.87;35.20;;;;;;;10.07;89.35;99871.25;5063198;28;20191;-56
2023/01/14 10:08:48;;;;;;;54.10;36.23;;;;;;;9.98;89.39;99860.75;5052966;28;20188;-56
2023/01/14 10:11:17;;;;;;;47.87;33.60;;;;;;;10.01;89.71;99865.97;5062782;28;20219;-55
2023/01/14 10:13:49;;;;;;;52.33;34.30;;;;;;;10.01;89.89;99859.94;5051694;28;20207;-55
2023/01/14 10:16:21;;;;;;;50.83;34.07;;;;;;;10.09;90.05;99864.44;5056761;28;20266;-55
2023/01/14 10:18:55;;;;;;;47.93;32.50;;;;;;;10.06;89.89;99860.94;5057059;28;20235;-55
2023/01/14 10:21:29;;;;;;;48.93;33.67;;;;;;;10.12;89.74;99853.38;5063324;28;20192;-56
2023/01/14 10:23:55;;;;;;;48.93;33.23;;;;;;;10.13;89.12;99861.97;5059514;28;20195;-63
2023/01/14 10:26:31;;;;;;;52.50;33.17;;;;;;;10.11;89.06;99855.91;5063704;28;20189;-55
2023/01/14 10:29:02;;;;;;;48.50;31.73;;;;;;;10.09;89.41;99856.75;5068225;28;20190;-56
2023/01/14 10:31:31;;;;;;;46.87;32.37;;;;;;;10.14;89.75;99856.00;5066449;28;20220;-60
2023/01/14 10:33:59;;;;;;;44.13;31.57;;;;;;;10.13;90.32;99847.47;5066440;28;20647;-57
2023/01/14 10:36:29;;;;;;;51.00;33.13;;;;;;;10.17;89.86;99840.66;5062474;28;20272;-55
2023/01/14 10:38:57;;;;;;;47.90;30.50;;;;;;;10.17;89.32;99848.38;5065049;28;20190;-55
2023/01/14 10:44:06;;;;;;;48.43;31.33;;;;;;;10.24;89.76;99846.00;5051056;28;20207;-54
2023/01/14 10:46:33;;;;;;;47.30;33.67;;;;;;;10.24;89.81;99840.00;5051812;28;20196;-55
2023/01/14 10:49:06;;;;;;;48.63;33.50;;;;;;;10.24;90.07;99822.91;5060599;28;20222;-55
2023/01/14 10:51:35;;;;;;;52.47;33.40;;;;;;;10.27;89.28;99832.38;5057693;28;20199;-55
2023/01/14 10:54:14;;;;;;;51.60;33.80;;;;;;;10.11;89.61;99799.44;5056635;28;20286;-55
2023/01/14 10:56:46;;;;;;;51.33;33.90;;;;;;;10.24;88.65;99832.28;5051245;28;20245;-55
2023/01/14 10:59:29;;;;;;;52.37;32.23;;;;;;;10.23;89.03;99825.41;5052577;28;20177;-55
2023/01/14 11:01:56;;;;;;;48.07;34.00;;;;;;;10.20;88.70;99830.47;5051181;28;20203;-55
2023/01/14 11:04:27;;;;;;;51.33;34.93;;;;;;;10.20;89.14;99826.22;5052919;28;20274;-55
2023/01/14 11:06:55;;;;;;;51.40;35.33;;;;;;;10.16;88.94;99815.84;5056598;28;20722;-56
2023/01/14 11:09:27;;;;;;;57.67;39.17;;;;;;;10.19;89.80;99824.47;5065301;28;20271;-54
2023/01/14 11:11:56;;;;;;;52.77;36.30;;;;;;;10.06;90.11;99812.16;5064379;28;20224;-55
2023/01/14 11:14:29;;;;;;;54.37;36.63;;;;;;;10.11;90.74;99830.25;5065845;28;20195;-55
2023/01/14 11:16:56;;;;;;;58.33;39.70;;;;;;;10.13;90.41;99826.91;5058265;28;20583;-55
2023/01/14 11:19:28;;;;;;;53.83;37.67;;;;;;;10.13;89.75;99831.19;5056280;28;20561;-55
2023/01/14 11:21:57;;;;;;;56.20;38.27;;;;;;;10.11;89.88;99830.25;5056583;28;20200;-54
2023/01/14 11:24:29;;;;;;;56.90;38.53;;;;;;;10.05;89.95;99821.53;5061118;28;20189;-54
2023/01/14 11:27:06;;;;;;;59.20;39.23;;;;;;;10.04;90.16;99824.09;5066606;28;20184;-54
2023/01/14 11:29:37;;;;;;;58.33;43.42;;;;;;;10.13;90.56;99823.47;5066358;28;20892;-55
2023/01/14 11:32:10;;;;;;;59.53;39.27;;;;;;;10.16;89.57;99819.28;5061864;28;20290;-55
2023/01/14 11:34:41;;;;;;;57.30;41.80;;;;;;;10.17;89.40;99818.44;5072562;28;20671;-56
2023/01/14 11:37:17;;;;;;;53.13;39.10;;;;;;;10.14;89.92;99820.94;5071389;28;20606;-55
2023/01/14 11:39:48;;;;;;;63.73;40.33;;;;;;;9.99;89.92;99800.03;5070800;28;20231;-55
2023/01/14 11:42:33;;;;;;;65.63;42.13;;;;;;;10.03;91.09;99825.78;5071003;28;20196;-55
2023/01/14 11:45:03;;;;;;;61.80;41.73;;;;;;;10.01;91.50;99822.31;5084970;28;20202;-55
2023/01/14 11:47:30;;;;;;;65.30;42.53;;;;;;;9.94;92.30;99819.59;5077099;28;20303;-55
2023/01/14 11:50:17;;;;;;;63.83;42.80;;;;;;;9.96;92.93;99826.47;5070583;28;20248;-55
2023/01/14 11:52:57;;;;;;;67.87;43.97;;;;;;;9.96;92.57;99818.78;5070810;28;20637;-55
2023/01/14 11:55:24;;;;;;;65.17;45.07;;;;;;;9.97;92.51;99824.78;5090505;28;20202;-55
2023/01/14 11:57:53;;;;;;;73.77;47.27;;;;;;;9.95;92.95;99809.34;5079206;28;20188;-55
2023/01/14 12:00:21;;;;;;;75.63;50.47;;;;;;;9.94;93.39;99811.88;5059281;28;20215;-55
2023/01/14 12:02:57;;;;;;;68.23;43.83;;;;;;;9.93;93.43;99815.28;5072150;28;20628;-55
2023/01/14 12:05:25;;;;;;;69.87;43.73;;;;;;;9.83;92.60;99803.91;5090732;28;20196;-55
2023/01/14 12:07:54;;;;;;;66.23;45.47;;;;;;;9.84;93.06;99823.59;5075011;28;20589;-55
2023/01/14 12:10:23;;;;;;;65.83;45.67;;;;;;;9.50;93.08;99750.06;5060366;28;20220;-56
2023/01/14 12:18:36;;;;;;;66.33;46.20;;;;;;;9.86;93.86;99816.81;5054128;28;20196;-55
2023/01/14 12:21:06;;;;;;;66.30;43.70;;;;;;;9.77;93.19;99808.91;5058037;28;20208;-55
2023/01/14 12:23:46;;;;;;;66.57;45.90;;;;;;;9.83;94.00;99821.03;5060975;28;20282;-54
2023/01/14 12:26:20;;;;;;;71.50;45.93;;;;;;;9.81;94.32;99809.81;5054437;28;20211;-55
2023/01/14 12:28:56;;;;;;;72.13;46.03;;;;;;;9.84;94.21;99823.59;5053936;28;20212;-56